< < Back
Terminal Aerodrome Forecast


Current Version              Previous Versions:   1  2  3  4  5  6  7  8  9  

Terminal Aerodrome Forecast

037
FTUS42 KJAX 012339
TAFSSI
TAF
KSSI 012339Z 0200/0224 15008KT P6SM VCSH FEW018 BKN035 OVC050
      TEMPO 0200/0201 SHRA BKN025
     FM020200 20007KT P6SM FEW015 SCT025 BKN060
     FM021300 22007KT P6SM VCTS BKN030CB=



Latest METAR

849
SAUS70 KWBC 021400 RRH
MTRSSI
METAR KSSI 021353Z AUTO 20006KT 10SM FEW015 BKN027 OVC048 27/23 A2991
RMK AO2 SLP131 T02670233 $


USA.gov is the U.S. government's official web portal to all federal, state and local government web resources and services.